Time;durP1;ratioP1;P1;durP2;ratioP2;P2;SDS_P1;SDS_P2;PMS_P1;PMS_P2;Temp;Humidity;BMP_temperature;BMP_pressure;BME280_temperature;BME280_humidity;BME280_pressure;Samples;Min_cycle;Max_cycle;Signal;HPM_P1;HPM_P2
2021/10/10 00:00:13;;;;;;;;;;;;;;;11.15;86.32;101047.72;5113118;28;20424;-21
2021/10/10 00:02:38;;;;;;;;;;;;;;;11.22;86.65;101037.91;5112456;28;19911;-21
2021/10/10 00:05:04;;;;;;;;;;;;;;;11.05;86.32;101034.75;5112952;28;19932;-23
2021/10/10 00:07:29;;;;;;;;;;;;;;;11.13;86.96;101041.75;5112853;28;19916;-21
2021/10/10 00:09:54;;;;;;;;;;;;;;;11.31;86.31;101035.06;5112701;28;19919;-21
2021/10/10 00:12:19;;;;;;;;;;;;;;;11.29;86.20;101034.44;5112506;28;20303;-21
2021/10/10 00:14:45;;;;;;;;;;;;;;;11.24;86.47;101033.19;5112475;28;19919;-21
2021/10/10 00:17:10;;;;;;;;;;;;;;;11.30;86.25;101036.06;5112567;28;19911;-21
2021/10/10 00:19:35;;;;;;;;;;;;;;;11.10;87.45;101034.16;5112810;28;19919;-21
2021/10/10 00:22:00;;;;;;;;;;;;;;;11.19;86.88;101038.28;5112559;28;20010;-20
2021/10/10 00:24:26;;;;;;;;;;;;;;;11.04;87.05;101027.75;5112430;28;19935;-21
2021/10/10 00:26:51;;;;;;;;;;;;;;;11.34;86.04;101037.31;5111994;28;20371;-21
2021/10/10 00:29:17;;;;;;;;;;;;;;;11.30;85.98;101031.56;5112286;28;19963;-21
2021/10/10 00:31:42;;;;;;;;;;;;;;;11.20;86.46;101031.94;5112320;28;19916;-21
2021/10/10 00:34:07;;;;;;;;;;;;;;;11.22;87.41;101029.88;5112131;28;19923;-21
2021/10/10 00:36:33;;;;;;;;;;;;;;;11.24;86.99;101027.84;5112313;28;19916;-21
2021/10/10 00:38:59;;;;;;;;;;;;;;;11.39;86.36;101027.69;5112201;28;19919;-21
2021/10/10 00:41:24;;;;;;;;;;;;;;;11.54;85.44;101026.69;5111508;28;19919;-21
2021/10/10 00:43:49;;;;;;;;;;;;;;;11.26;85.57;101015.13;5112023;28;19918;-21
2021/10/10 00:46:14;;;;;;;;;;;;;;;11.22;86.60;101019.22;5111916;28;19972;-21
2021/10/10 00:48:40;;;;;;;;;;;;;;;11.14;86.84;101019.38;5111709;28;19918;-20
2021/10/10 00:51:05;;;;;;;;;;;;;;;11.03;87.70;101014.59;5111946;28;19912;-20
2021/10/10 00:53:30;;;;;;;;;;;;;;;11.16;87.09;101009.31;5112021;28;19912;-21
2021/10/10 00:55:56;;;;;;;;;;;;;;;11.25;86.26;101009.97;5111857;28;19922;-21
2021/10/10 00:58:22;;;;;;;;;;;;;;;11.25;86.49;101008.13;5112076;28;19919;-21
2021/10/10 01:00:48;;;;;;;;;;;;;;;11.22;86.70;101018.41;5111465;28;19918;-21
2021/10/10 01:03:13;;;;;;;;;;;;;;;11.25;86.17;101002.78;5093499;28;19999;-21
2021/10/10 01:05:39;;;;;;;;;;;;;;;11.69;84.49;101002.47;5093271;28;20006;-21
2021/10/10 01:08:04;;;;;;;;;;;;;;;11.43;85.57;101004.88;5111802;28;20002;-21
2021/10/10 01:10:29;;;;;;;;;;;;;;;11.10;86.45;100998.63;5111550;28;19977;-21
2021/10/10 01:12:55;;;;;;;;;;;;;;;11.05;87.35;100996.53;5111164;28;19919;-21
2021/10/10 01:15:20;;;;;;;;;;;;;;;11.05;87.86;101001.88;5093196;28;20387;-21
2021/10/10 01:17:46;;;;;;;;;;;;;;;11.02;87.91;101002.28;5111395;28;19969;-21
2021/10/10 01:20:12;;;;;;;;;;;;;;;10.97;87.69;101004.72;5092839;28;19965;-21
2021/10/10 01:22:37;;;;;;;;;;;;;;;10.78;88.03;101000.94;5111046;28;19915;-21
2021/10/10 01:25:03;;;;;;;;;;;;;;;11.14;87.36;100999.88;5111168;28;19995;-20
2021/10/10 01:27:28;;;;;;;;;;;;;;;11.23;86.61;101006.69;5093005;28;20295;-21
2021/10/10 01:29:53;;;;;;;;;;;;;;;11.33;86.96;101001.78;5111050;28;19999;-21
2021/10/10 01:32:19;;;;;;;;;;;;;;;11.36;86.20;101008.56;5111034;28;19912;-21
2021/10/10 01:34:44;;;;;;;;;;;;;;;11.31;85.46;101003.00;5110892;28;19928;-21
2021/10/10 01:37:11;;;;;;;;;;;;;;;11.36;86.17;101003.22;5110865;28;19920;-21
2021/10/10 01:39:36;;;;;;;;;;;;;;;11.22;86.40;100987.16;5110859;28;20314;-21
2021/10/10 01:42:01;;;;;;;;;;;;;;;11.33;86.13;100999.09;5111210;28;19912;-21
2021/10/10 01:44:27;;;;;;;;;;;;;;;11.39;85.57;101000.16;5111095;28;19922;-21
2021/10/10 01:46:52;;;;;;;;;;;;;;;11.19;86.36;100998.22;5110533;28;20391;-21
2021/10/10 01:49:17;;;;;;;;;;;;;;;11.10;86.55;101010.13;5110627;28;19911;-21
2021/10/10 01:51:43;;;;;;;;;;;;;;;11.07;86.67;101007.84;5110778;28;19911;-21
2021/10/10 01:54:08;;;;;;;;;;;;;;;11.40;85.17;101004.47;5109373;28;19918;-21
2021/10/10 01:56:33;;;;;;;;;;;;;;;11.68;84.10;101011.53;5110344;28;20007;-21
2021/10/10 01:58:58;;;;;;;;;;;;;;;11.81;83.65;101006.19;5110464;28;19911;-21
2021/10/10 02:01:24;;;;;;;;;;;;;;;11.65;83.61;101002.88;5110546;28;19935;-21
2021/10/10 02:03:49;;;;;;;;;;;;;;;11.81;83.88;101007.03;5110479;28;20368;-21
2021/10/10 02:06:14;;;;;;;;;;;;;;;11.88;83.13;101007.03;5110380;28;19920;-21
2021/10/10 02:08:40;;;;;;;;;;;;;;;11.76;82.55;101009.47;5110160;28;20394;-21
2021/10/10 02:11:05;;;;;;;;;;;;;;;11.76;83.41;101014.00;5110356;28;19926;-21
2021/10/10 02:13:30;;;;;;;;;;;;;;;11.89;83.05;101000.69;5110444;28;19916;-21
2021/10/10 02:15:57;;;;;;;;;;;;;;;11.95;82.65;101002.56;5110433;28;19915;-21
2021/10/10 02:18:22;;;;;;;;;;;;;;;12.11;81.82;101005.84;5110217;28;19916;-21
2021/10/10 02:20:47;;;;;;;;;;;;;;;11.57;83.77;101011.09;5109800;28;20272;-21
2021/10/10 02:23:13;;;;;;;;;;;;;;;11.82;83.67;101002.50;5110233;28;19916;-21
2021/10/10 02:25:38;;;;;;;;;;;;;;;11.86;82.55;100993.88;5110054;28;19965;-21
2021/10/10 02:28:03;;;;;;;;;;;;;;;11.61;83.72;101004.31;5110133;28;19916;-21
2021/10/10 02:30:29;;;;;;;;;;;;;;;11.39;84.92;101002.81;5109933;28;20381;-21
2021/10/10 02:32:54;;;;;;;;;;;;;;;11.64;83.95;100997.75;5109734;28;19919;-24
2021/10/10 02:35:19;;;;;;;;;;;;;;;11.64;84.03;101001.22;5109762;28;19942;-21
2021/10/10 02:37:45;;;;;;;;;;;;;;;11.76;83.25;100997.97;5109876;28;19944;-21
2021/10/10 02:40:10;;;;;;;;;;;;;;;11.72;82.84;100994.88;5109763;28;19922;-21
2021/10/10 02:42:36;;;;;;;;;;;;;;;11.74;83.17;100997.34;5109589;28;20395;-21
2021/10/10 02:45:01;;;;;;;;;;;;;;;11.92;81.93;100997.59;5109773;28;20306;-21
2021/10/10 02:47:26;;;;;;;;;;;;;;;11.79;83.01;101003.75;5110011;28;20302;-21
2021/10/10 02:49:52;;;;;;;;;;;;;;;11.86;82.23;100991.19;5109752;28;19912;-20
2021/10/10 02:52:17;;;;;;;;;;;;;;;11.86;82.58;100987.69;5091494;28;19961;-21
2021/10/10 02:54:42;;;;;;;;;;;;;;;11.72;83.36;100989.53;5084667;28;20308;-20
2021/10/10 02:57:08;;;;;;;;;;;;;;;11.40;84.31;100978.59;5089507;28;20398;-21
2021/10/10 02:59:33;;;;;;;;;;;;;;;11.56;83.33;100982.72;5089349;28;19970;-21
2021/10/10 03:01:58;;;;;;;;;;;;;;;11.70;83.89;100988.91;5089370;28;19985;-21
2021/10/10 03:04:24;;;;;;;;;;;;;;;11.57;83.65;100986.22;5089969;28;19919;-21
2021/10/10 03:06:49;;;;;;;;;;;;;;;11.56;83.81;100987.25;5093265;28;19916;-21
2021/10/10 03:09:14;;;;;;;;;;;;;;;11.59;83.52;100982.31;5093428;28;20017;-21
2021/10/10 03:11:40;;;;;;;;;;;;;;;11.87;82.69;100981.34;5093394;28;20642;-21
2021/10/10 03:14:05;;;;;;;;;;;;;;;11.77;82.12;100983.56;5093354;28;19915;-21
2021/10/10 03:16:30;;;;;;;;;;;;;;;11.80;81.80;100978.66;5093492;28;20380;-21
2021/10/10 03:18:55;;;;;;;;;;;;;;;11.60;83.15;100983.13;5093018;28;20746;-21
2021/10/10 03:21:21;;;;;;;;;;;;;;;11.54;83.52;100974.09;5093230;28;19927;-21
2021/10/10 03:23:46;;;;;;;;;;;;;;;11.24;83.70;100966.44;5093710;28;19919;-21
2021/10/10 03:26:12;;;;;;;;;;;;;;;11.55;83.26;100974.94;5093003;28;20329;-21
2021/10/10 03:28:37;;;;;;;;;;;;;;;11.88;82.20;100969.59;5092906;28;19912;-21
2021/10/10 03:31:03;;;;;;;;;;;;;;;11.90;81.50;100972.13;5092966;28;19919;-21
2021/10/10 03:33:29;;;;;;;;;;;;;;;11.69;82.65;100975.75;5092913;28;19927;-21
2021/10/10 03:35:54;;;;;;;;;;;;;;;11.82;81.84;100971.25;5092922;28;19912;-21
2021/10/10 03:38:19;;;;;;;;;;;;;;;12.11;80.69;100971.06;5092853;28;20010;-21
2021/10/10 03:40:44;;;;;;;;;;;;;;;12.15;79.97;100965.09;5092638;28;19922;-21
2021/10/10 03:43:10;;;;;;;;;;;;;;;11.81;81.19;100958.06;5092886;28;19912;-21
2021/10/10 03:45:35;;;;;;;;;;;;;;;11.79;80.88;100960.13;5093190;28;20367;-21
2021/10/10 03:48:01;;;;;;;;;;;;;;;11.60;81.97;100959.91;5092652;28;20005;-21
2021/10/10 03:50:26;;;;;;;;;;;;;;;11.97;81.49;100962.22;5092884;28;19912;-21
2021/10/10 03:52:52;;;;;;;;;;;;;;;11.97;81.02;100968.41;5092511;28;19912;-20
2021/10/10 03:55:34;;;;;;;;;;;;;;;11.97;80.80;100965.75;5103743;28;19919;-21
2021/10/10 03:58:00;;;;;;;;;;;;;;;11.89;81.38;100963.28;5113030;28;20010;-21
2021/10/10 04:00:26;;;;;;;;;;;;;;;11.85;81.19;100964.69;5112748;28;20064;-21
2021/10/10 04:02:51;;;;;;;;;;;;;;;11.88;81.59;100969.59;5112510;28;19912;-21
2021/10/10 04:07:44;;;;;;;;;;;;;;;11.92;80.28;100962.84;5112662;28;20416;-21
2021/10/10 04:10:10;;;;;;;;;;;;;;;11.75;81.72;100959.75;5112973;28;19911;-21
2021/10/10 04:12:35;;;;;;;;;;;;;;;11.54;82.82;100962.59;5112654;28;19916;-21
2021/10/10 04:15:00;;;;;;;;;;;;;;;11.66;82.27;100961.78;5112529;28;19915;-21
2021/10/10 04:17:26;;;;;;;;;;;;;;;11.61;82.07;100958.09;5111270;28;19969;-21
2021/10/10 04:19:51;;;;;;;;;;;;;;;11.74;81.65;100963.44;5113108;28;19916;-21
2021/10/10 04:22:16;;;;;;;;;;;;;;;11.35;83.53;100964.19;5112891;28;19912;-21
2021/10/10 04:24:41;;;;;;;;;;;;;;;11.40;84.03;100967.91;5112224;28;19912;-21
2021/10/10 04:27:07;;;;;;;;;;;;;;;11.27;84.71;100965.19;5112342;28;19956;-21
2021/10/10 04:29:32;;;;;;;;;;;;;;;11.44;84.24;100973.66;5112325;28;20368;-21
2021/10/10 04:31:57;;;;;;;;;;;;;;;11.62;82.50;100979.22;5112069;28;19919;-21
2021/10/10 04:34:23;;;;;;;;;;;;;;;11.34;83.30;100976.72;5112299;28;19976;-20
2021/10/10 04:36:48;;;;;;;;;;;;;;;11.48;82.85;100974.91;5111905;28;19915;-21
2021/10/10 04:39:13;;;;;;;;;;;;;;;11.72;81.86;100975.34;5112241;28;20014;-21
2021/10/10 04:41:38;;;;;;;;;;;;;;;11.37;83.20;100972.81;5112120;28;19965;-21
2021/10/10 04:44:04;;;;;;;;;;;;;;;11.53;83.29;100980.47;5112011;28;19911;-21
2021/10/10 04:46:29;;;;;;;;;;;;;;;11.65;81.88;100978.84;5111767;28;20385;-20
2021/10/10 04:48:54;;;;;;;;;;;;;;;11.38;83.00;100971.78;5111921;28;19926;-21
2021/10/10 04:51:20;;;;;;;;;;;;;;;11.89;81.87;100970.47;5112030;28;19912;-21
2021/10/10 04:53:45;;;;;;;;;;;;;;;11.99;81.29;100978.88;5112333;28;20386;-21
2021/10/10 04:56:10;;;;;;;;;;;;;;;11.73;82.12;100972.50;5111764;28;19920;-21
2021/10/10 04:58:36;;;;;;;;;;;;;;;12.08;80.62;100971.50;5111512;28;19911;-21
2021/10/10 05:01:01;;;;;;;;;;;;;;;11.95;81.12;100970.47;5111583;28;19919;-21
2021/10/10 05:03:26;;;;;;;;;;;;;;;11.79;82.11;100970.81;5111767;28;19919;-21
2021/10/10 05:05:52;;;;;;;;;;;;;;;11.92;82.04;100973.53;5111515;28;19917;-21
2021/10/10 05:08:17;;;;;;;;;;;;;;;11.53;83.08;100971.63;5111522;28;19958;-21
2021/10/10 05:10:42;;;;;;;;;;;;;;;11.46;83.37;100976.94;5111490;28;20014;-21
2021/10/10 05:13:08;;;;;;;;;;;;;;;11.60;82.55;100981.28;5111574;28;19960;-21
2021/10/10 05:15:33;;;;;;;;;;;;;;;11.65;82.36;100986.84;5111208;28;20299;-22
2021/10/10 05:17:58;;;;;;;;;;;;;;;11.53;83.56;100985.81;5111479;28;19958;-20
2021/10/10 05:20:23;;;;;;;;;;;;;;;11.26;84.50;100987.59;5111690;28;20070;-21
2021/10/10 05:22:49;;;;;;;;;;;;;;;11.32;85.43;100992.13;5111103;28;20314;-21
2021/10/10 05:25:15;;;;;;;;;;;;;;;11.62;84.64;100987.25;5111171;28;20409;-21
2021/10/10 05:27:40;;;;;;;;;;;;;;;11.69;83.46;100997.97;5110744;28;20299;-21
2021/10/10 05:30:06;;;;;;;;;;;;;;;11.52;83.55;100997.50;5111116;28;20367;-21
2021/10/10 05:32:31;;;;;;;;;;;;;;;11.36;84.43;100992.53;5111210;28;19920;-21
2021/10/10 05:34:57;;;;;;;;;;;;;;;11.42;84.47;100999.75;5110895;28;19915;-21
2021/10/10 05:37:22;;;;;;;;;;;;;;;11.52;84.60;101002.84;5110745;28;20515;-21
2021/10/10 05:39:48;;;;;;;;;;;;;;;11.77;83.14;101010.28;5111112;28;19915;-21
2021/10/10 05:42:13;;;;;;;;;;;;;;;11.81;82.36;101017.72;5110917;28;19915;-21
2021/10/10 05:44:38;;;;;;;;;;;;;;;11.86;83.23;101014.44;5110393;28;20002;-21
2021/10/10 05:47:03;;;;;;;;;;;;;;;11.73;83.18;101022.41;5110798;28;20436;-21
2021/10/10 05:49:29;;;;;;;;;;;;;;;11.77;83.55;101021.81;5110755;28;19922;-21
2021/10/10 05:51:58;;;;;;;;;;;;;;;11.90;82.19;101018.38;5110805;28;19915;-21
2021/10/10 05:54:23;;;;;;;;;;;;;;;11.36;84.59;101017.41;5110645;28;19949;-21
2021/10/10 05:56:48;;;;;;;;;;;;;;;11.27;85.21;101010.59;5110621;28;20375;-21
2021/10/10 05:59:15;;;;;;;;;;;;;;;11.70;83.92;101010.28;5110698;28;19918;-21
2021/10/10 06:01:41;;;;;;;;;;;;;;;11.46;84.78;101003.66;5110655;28;19915;-21
2021/10/10 06:04:06;;;;;;;;;;;;;;;11.62;83.98;101013.16;5110534;28;19915;-21
2021/10/10 06:06:31;;;;;;;;;;;;;;;11.46;85.27;101006.31;5110293;28;19972;-23
2021/10/10 06:08:57;;;;;;;;;;;;;;;11.53;85.44;100999.16;5092286;28;20353;-21
2021/10/10 06:11:22;;;;;;;;;;;;;;;11.49;84.93;101003.28;5110370;28;19911;-21
2021/10/10 06:13:48;;;;;;;;;;;;;;;11.62;85.01;100999.78;5092119;28;19919;-21
2021/10/10 06:16:13;;;;;;;;;;;;;;;11.51;85.06;101003.06;5091890;28;19915;-21
2021/10/10 06:18:38;;;;;;;;;;;;;;;11.47;85.69;101016.00;5110168;28;19918;-21
2021/10/10 06:21:03;;;;;;;;;;;;;;;11.29;86.59;101015.75;5110059;28;19969;-21
2021/10/10 06:23:29;;;;;;;;;;;;;;;11.69;84.87;101002.47;5110053;28;20006;-21
2021/10/10 06:25:54;;;;;;;;;;;;;;;11.87;83.96;101010.75;5110029;28;19998;-21
2021/10/10 06:28:19;;;;;;;;;;;;;;;11.89;83.28;101006.06;5110188;28;19912;-22
2021/10/10 06:30:45;;;;;;;;;;;;;;;11.70;83.07;101009.47;5110023;28;20283;-21
2021/10/10 06:33:10;;;;;;;;;;;;;;;11.52;84.12;101010.03;5110068;28;20022;-21
2021/10/10 06:35:35;;;;;;;;;;;;;;;11.35;85.57;101006.94;5109824;28;19939;-21
2021/10/10 06:38:01;;;;;;;;;;;;;;;11.51;85.54;101005.75;5109974;28;19912;-21
2021/10/10 06:40:26;;;;;;;;;;;;;;;11.71;85.04;101000.41;5109337;28;19911;-21
2021/10/10 06:42:51;;;;;;;;;;;;;;;11.57;84.63;101000.41;5109677;28;19915;-21
2021/10/10 06:45:16;;;;;;;;;;;;;;;11.73;84.66;101009.06;5109875;28;20002;-21
2021/10/10 06:47:42;;;;;;;;;;;;;;;11.96;83.38;101004.19;5109857;28;19920;-21
2021/10/10 06:50:07;;;;;;;;;;;;;;;12.18;83.51;101006.69;5109769;28;19964;-21
2021/10/10 06:52:32;;;;;;;;;;;;;;;11.91;83.04;100990.63;5109805;28;19972;-21
2021/10/10 06:54:58;;;;;;;;;;;;;;;11.89;83.90;101003.38;5109472;28;19923;-21
2021/10/10 06:57:25;;;;;;;;;;;;;;;11.55;84.79;101002.47;5109815;28;20002;-21
2021/10/10 06:59:50;;;;;;;;;;;;;;;11.55;85.19;101002.47;5091791;28;19916;-21
2021/10/10 07:02:16;;;;;;;;;;;;;;;11.65;85.34;101000.22;5109854;28;19912;-21
2021/10/10 07:04:41;;;;;;;;;;;;;;;11.85;85.07;100999.44;5109709;28;19911;-21
2021/10/10 07:07:06;;;;;;;;;;;;;;;11.75;84.19;101002.50;5109678;28;20043;-21
2021/10/10 07:09:31;;;;;;;;;;;;;;;11.99;83.29;101003.78;5109753;28;19915;-21
2021/10/10 07:11:57;;;;;;;;;;;;;;;12.37;81.78;101011.16;5109629;28;19912;-21
2021/10/10 07:14:22;;;;;;;;;;;;;;;12.34;81.31;101010.75;5109615;28;20002;-21
2021/10/10 07:16:47;;;;;;;;;;;;;;;12.42;81.36;101005.19;5109415;28;19915;-21
2021/10/10 07:19:20;;;;;;;;;;;;;;;12.73;80.58;101007.22;5109447;28;19915;-21
2021/10/10 07:27:03;;;;;;;;;;;;;;;12.27;82.34;101000.88;5094097;28;19923;-21
2021/10/10 07:29:28;;;;;;;;;;;;;;;12.52;81.13;101000.22;5109447;28;19916;-21
2021/10/10 07:31:54;;;;;;;;;;;;;;;12.92;78.82;101008.16;5109253;28;20381;-21
2021/10/10 07:34:19;;;;;;;;;;;;;;;12.39;81.19;101009.09;5109512;28;20303;-21
2021/10/10 07:36:44;;;;;;;;;;;;;;;12.26;81.09;101007.28;5109113;28;19911;-21
2021/10/10 07:39:10;;;;;;;;;;;;;;;11.85;84.28;101018.97;5109666;28;19958;-21
2021/10/10 07:41:38;;;;;;;;;;;;;;;11.91;84.16;101006.66;5090973;28;19999;-21
2021/10/10 07:44:06;;;;;;;;;;;;;;;11.94;84.19;101016.94;5109409;28;19912;-21
2021/10/10 07:46:37;;;;;;;;;;;;;;;12.02;83.06;101014.06;5109045;28;19958;-21
2021/10/10 07:49:02;;;;;;;;;;;;;;;12.18;83.45;101017.38;5109543;28;19919;-21
2021/10/10 07:51:28;;;;;;;;;;;;;;;11.99;84.00;101017.16;5111515;28;19912;-21
2021/10/10 07:53:54;;;;;;;;;;;;;;;11.97;84.25;101015.69;5112913;28;20348;-21
2021/10/10 07:56:19;;;;;;;;;;;;;;;11.78;85.21;101022.66;5112790;28;19919;-21
2021/10/10 07:58:44;;;;;;;;;;;;;;;12.08;84.42;101022.31;5112754;28;19918;-20
2021/10/10 08:01:10;;;;;;;;;;;;;;;11.87;85.12;101026.78;5112886;28;20336;-21
2021/10/10 08:03:35;;;;;;;;;;;;;;;12.04;84.09;101020.03;5112919;28;19916;-20
2021/10/10 08:06:00;;;;;;;;;;;;;;;12.18;83.42;101017.38;5112793;28;19918;-21
2021/10/10 08:08:26;;;;;;;;;;;;;;;11.96;83.41;101025.56;5112745;28;20405;-21
2021/10/10 08:10:51;;;;;;;;;;;;;;;11.97;83.77;101021.03;5112661;28;19994;-21
2021/10/10 08:13:17;;;;;;;;;;;;;;;12.05;83.71;101021.69;5112951;28;20023;-21
2021/10/10 08:15:42;;;;;;;;;;;;;;;11.94;84.49;101016.94;5112555;28;19937;-21
2021/10/10 08:18:07;;;;;;;;;;;;;;;11.76;84.64;101019.34;5112674;28;19976;-20
2021/10/10 08:20:32;;;;;;;;;;;;;;;11.48;85.54;101020.31;5112363;28;19912;-21
2021/10/10 08:22:58;;;;;;;;;;;;;;;11.24;86.29;101013.69;5112512;28;19912;-21
2021/10/10 08:25:23;;;;;;;;;;;;;;;10.53;89.36;101014.75;5112510;28;19967;-21
2021/10/10 08:27:49;;;;;;;;;;;;;;;10.95;90.17;101012.94;5112323;28;19934;-21
2021/10/10 08:30:15;;;;;;;;;;;;;;;10.96;89.69;101014.56;5112245;28;20022;-21
2021/10/10 08:32:40;;;;;;;;;;;;;;;11.04;89.07;101002.91;5093874;28;19919;-20
2021/10/10 08:35:06;;;;;;;;;;;;;;;11.00;89.18;101001.66;5112653;28;19923;-20
2021/10/10 08:37:31;;;;;;;;;;;;;;;11.24;89.53;101001.13;5112078;28;20454;-21
2021/10/10 08:39:56;;;;;;;;;;;;;;;11.16;88.86;100998.66;5112180;28;19912;-21
2021/10/10 08:42:28;;;;;;;;;;;;;;;11.19;89.11;100992.91;5112153;28;20391;-21
2021/10/10 08:44:55;;;;;;;;;;;;;;;11.25;88.95;100986.75;5111818;28;19915;-21
2021/10/10 08:47:21;;;;;;;;;;;;;;;11.41;88.71;100990.09;5112108;28;19919;-21
2021/10/10 08:49:47;;;;;;;;;;;;;;;11.05;88.90;100985.84;5093934;28;20010;-20
2021/10/10 08:52:14;;;;;;;;;;;;;;;11.23;88.43;100986.13;5112105;28;20018;-21
2021/10/10 08:54:39;;;;;;;;;;;;;;;11.54;87.49;101000.78;5111439;28;19915;-20
2021/10/10 08:57:10;;;;;;;;;;;;;;;10.98;88.89;101004.53;5111769;28;20401;-21
2021/10/10 08:59:44;;;;;;;;;;;;;;;11.00;89.31;100993.66;5111881;28;19915;-21
2021/10/10 09:02:11;;;;;;;;;;;;;;;11.04;89.75;100995.72;5093451;28;20450;-21
2021/10/10 09:04:39;;;;;;;;;;;;;;;11.19;88.33;100992.91;5111450;28;19955;-21
2021/10/10 09:07:05;;;;;;;;;;;;;;;11.16;88.92;100997.84;5111538;28;19912;-20
2021/10/10 09:09:33;;;;;;;;;;;;;;;11.09;88.74;100991.63;5111745;28;20011;-20
2021/10/10 09:12:05;;;;;;;;;;;;;;;11.14;88.38;100995.34;5111396;28;20014;-21
2021/10/10 09:14:43;;;;;;;;;;;;;;;11.30;87.35;100998.69;5111498;28;20616;-20
2021/10/10 09:17:15;;;;;;;;;;;;;;;11.41;87.57;100996.25;5111350;28;20355;-21
2021/10/10 09:19:40;;;;;;;;;;;;;;;11.26;88.44;100995.59;5111413;28;19985;-20
2021/10/10 09:22:06;;;;;;;;;;;;;;;11.32;88.56;101000.16;5111295;28;20371;-20
2021/10/10 09:24:34;;;;;;;;;;;;;;;11.32;88.03;101007.31;5111313;28;20504;-21
2021/10/10 09:27:03;;;;;;;;;;;;;;;11.33;87.24;101007.13;5111131;28;20006;-20
2021/10/10 09:29:39;;;;;;;;;;;;;;;11.42;87.53;100997.91;5111226;28;19972;-21
2021/10/10 09:32:12;;;;;;;;;;;;;;;11.37;88.43;101003.03;5111250;28;19920;-21
2021/10/10 09:34:38;;;;;;;;;;;;;;;11.73;85.89;101006.38;5110929;28;20376;-21
2021/10/10 09:37:05;;;;;;;;;;;;;;;11.58;86.20;101007.38;5110893;28;19919;-20
2021/10/10 09:39:35;;;;;;;;;;;;;;;11.57;87.55;101004.94;5110493;28;20299;-21
2021/10/10 09:42:01;;;;;;;;;;;;;;;11.79;85.61;101006.41;5091937;28;19911;-21
2021/10/10 09:44:33;;;;;;;;;;;;;;;11.41;85.92;101017.63;5110648;28;19996;-20
2021/10/10 09:46:59;;;;;;;;;;;;;;;11.45;86.75;101010.03;5110275;28;20398;-21
2021/10/10 09:49:28;;;;;;;;;;;;;;;11.59;86.05;100998.34;5095623;28;19916;-21
2021/10/10 09:51:54;;;;;;;;;;;;;;;12.85;90.55;100992.13;5094360;28;19907;-21
2021/10/10 09:54:20;;;;;;;;;;;;;;;13.87;75.70;100999.44;5091616;28;19950;-20
2021/10/10 09:57:04;;;;;;;;;;;;;;;15.96;74.18;100995.81;5069608;28;19916;-21
2021/10/10 09:59:29;;;;;;;;;;;;;;;17.55;64.12;100996.50;5069923;28;19916;-21
2021/10/10 10:01:55;;;;;;;;;;;;;;;16.77;64.29;101003.28;5079843;28;19916;-22
2021/10/10 10:04:20;;;;;;;;;;;;;;;15.04;69.70;100998.75;5082341;28;19920;-21
2021/10/10 10:06:45;;;;;;;;;;;;;;;13.88;74.32;100995.72;5069429;28;20339;-23
2021/10/10 10:09:11;;;;;;;;;;;;;;;12.89;78.53;101000.53;5084221;28;20304;-21
2021/10/10 10:11:40;;;;;;;;;;;;;;;13.11;78.40;100995.72;5088633;28;19920;-22
2021/10/10 10:14:08;;;;;;;;;;;;;;;12.93;79.13;100992.91;5088429;28;19912;-23
2021/10/10 10:16:33;;;;;;;;;;;;;;;12.23;81.38;100993.50;5078251;28;19923;-23
2021/10/10 10:18:59;;;;;;;;;;;;;;;11.58;83.32;100990.53;5068994;28;19916;-23
2021/10/10 10:21:25;;;;;;;;;;;;;;;11.97;83.36;100991.63;5069603;28;19916;-23
2021/10/10 10:23:51;;;;;;;;;;;;;;;12.06;84.10;100993.91;5076190;28;19970;-23
2021/10/10 10:26:16;;;;;;;;;;;;;;;11.94;84.22;100997.41;5071626;28;20720;-23
2021/10/10 10:28:41;;;;;;;;;;;;;;;11.74;84.23;101002.69;5071685;28;20030;-23
2021/10/10 10:31:07;;;;;;;;;;;;;;;11.71;84.42;100995.06;5070583;28;19926;-23
2021/10/10 10:33:32;;;;;;;;;;;;;;;11.39;85.17;100997.50;5089504;28;19916;-23
2021/10/10 10:35:57;;;;;;;;;;;;;;;11.71;85.68;100995.06;5088627;28;19916;-23
2021/10/10 10:38:42;;;;;;;;;;;;;;;11.83;84.42;100996.16;5088235;28;20288;-23
2021/10/10 10:41:07;;;;;;;;;;;;;;;11.86;84.54;100995.72;5078798;28;20414;-24
2021/10/10 10:43:33;;;;;;;;;;;;;;;11.84;84.58;100995.91;5088142;28;19916;-24
2021/10/10 10:46:05;;;;;;;;;;;;;;;11.65;85.42;101007.41;5089295;28;20417;-24
2021/10/10 10:48:35;;;;;;;;;;;;;;;11.80;85.78;100993.88;5085543;28;19995;-23
2021/10/10 10:51:14;;;;;;;;;;;;;;;12.02;83.50;100992.66;5086595;28;19911;-24
2021/10/10 10:53:39;;;;;;;;;;;;;;;11.89;83.67;100984.66;5087120;28;20315;-25
2021/10/10 10:56:05;;;;;;;;;;;;;;;11.67;84.48;100986.66;5084737;28;19916;-24
2021/10/10 10:58:41;;;;;;;;;;;;;;;11.75;83.88;100975.78;5086627;28;19922;-24
2021/10/10 11:01:07;;;;;;;;;;;;;;;11.61;84.03;100964.25;5068342;28;20496;-24
2021/10/10 11:03:34;;;;;;;;;;;;;;;11.86;84.22;100972.47;5085978;28;19920;-23
2021/10/10 11:06:00;;;;;;;;;;;;;;;12.17;83.99;100968.38;5087558;28;19916;-23
2021/10/10 11:08:26;;;;;;;;;;;;;;;12.33;82.40;100963.66;5089232;28;19911;-24
2021/10/10 11:11:03;;;;;;;;;;;;;;;12.22;83.18;100967.78;5088936;28;20372;-23
2021/10/10 11:13:31;;;;;;;;;;;;;;;11.99;83.58;100971.72;5088724;28;20496;-23
2021/10/10 11:15:57;;;;;;;;;;;;;;;12.15;83.03;100964.28;5088656;28;19924;-23
2021/10/10 11:18:23;;;;;;;;;;;;;;;12.50;82.77;100947.97;5088454;28;19919;-23
2021/10/10 11:20:53;;;;;;;;;;;;;;;12.46;81.81;100947.56;5088984;28;19922;-23
2021/10/10 11:23:19;;;;;;;;;;;;;;;12.18;83.62;100942.50;5088264;28;20308;-23
2021/10/10 11:25:47;;;;;;;;;;;;;;;11.69;84.77;100935.66;5088476;28;20402;-22
2021/10/10 11:28:12;;;;;;;;;;;;;;;11.68;85.37;100931.38;5090647;28;19916;-23
2021/10/10 11:30:38;;;;;;;;;;;;;;;11.69;85.23;100938.34;5073612;28;19920;-23
2021/10/10 11:33:03;;;;;;;;;;;;;;;11.59;87.04;100938.75;5092228;28;19938;-23
2021/10/10 11:35:29;;;;;;;;;;;;;;;11.87;86.18;100941.25;5092532;28;19916;-23
2021/10/10 11:38:09;;;;;;;;;;;;;;;12.00;85.38;100949.28;5092778;28;19912;-23
2021/10/10 11:40:35;;;;;;;;;;;;;;;11.80;85.77;100951.91;5091499;28;20368;-23
2021/10/10 11:43:00;;;;;;;;;;;;;;;11.60;86.49;100949.22;5092308;28;19922;-23
2021/10/10 11:45:26;;;;;;;;;;;;;;;11.61;87.61;100952.75;5092589;28;19912;-23
2021/10/10 11:47:51;;;;;;;;;;;;;;;11.59;87.25;100944.94;5091925;28;20009;-23
2021/10/10 11:50:17;;;;;;;;;;;;;;;11.35;87.18;100948.16;5092621;28;19977;-23
2021/10/10 11:52:46;;;;;;;;;;;;;;;11.46;88.14;100945.75;5087103;28;19963;-23
2021/10/10 11:57:37;;;;;;;;;;;;;;;11.36;87.72;100944.47;5112279;28;19920;-23
2021/10/10 12:00:07;;;;;;;;;;;;;;;11.63;87.26;100943.50;5112578;28;19999;-23
2021/10/10 12:02:35;;;;;;;;;;;;;;;12.00;86.94;100943.94;5110738;28;20491;-24
2021/10/10 12:05:01;;;;;;;;;;;;;;;12.13;85.11;100944.97;5112490;28;20311;-24
2021/10/10 12:07:29;;;;;;;;;;;;;;;11.88;83.38;100942.88;5112239;28;19912;-23
2021/10/10 12:09:55;;;;;;;;;;;;;;;11.84;85.51;100939.78;5111118;28;19912;-23
2021/10/10 12:12:20;;;;;;;;;;;;;;;11.96;84.85;100940.03;5110769;28;19923;-23
2021/10/10 12:14:55;;;;;;;;;;;;;;;11.88;85.66;100937.53;5110188;28;19919;-23
2021/10/10 12:17:27;;;;;;;;;;;;;;;12.00;86.93;100925.22;5093411;28;19976;-24
2021/10/10 12:19:53;;;;;;;;;;;;;;;12.01;85.04;100918.00;5110338;28;19958;-23
2021/10/10 12:22:18;;;;;;;;;;;;;;;12.29;83.07;100917.78;5112187;28;19951;-24
2021/10/10 12:24:44;;;;;;;;;;;;;;;12.22;84.06;100911.63;5102418;28;19911;-24
2021/10/10 12:27:09;;;;;;;;;;;;;;;11.92;84.18;100912.06;5112028;28;20354;-24
2021/10/10 12:29:34;;;;;;;;;;;;;;;12.01;84.51;100916.19;5112098;28;19916;-24
2021/10/10 12:32:15;;;;;;;;;;;;;;;11.90;84.68;100908.78;5110290;28;19984;-24
2021/10/10 12:34:41;;;;;;;;;;;;;;;12.18;84.35;100905.06;5110294;28;20002;-24
2021/10/10 12:37:14;;;;;;;;;;;;;;;12.17;83.98;100903.41;5087832;28;20010;-24
2021/10/10 12:39:43;;;;;;;;;;;;;;;12.21;83.45;100896.59;5109189;28;19912;-24